createdAt,value
2022-10-13T00:00:05.870Z,101680.00
2022-10-13T00:02:38.799Z,101678.00
2022-10-13T00:05:15.739Z,101666.00
2022-10-13T00:07:48.619Z,101670.00
2022-10-13T00:10:21.518Z,101659.00
2022-10-13T00:12:54.556Z,101665.00
2022-10-13T00:15:27.919Z,101659.00
2022-10-13T00:18:00.783Z,101660.00
2022-10-13T00:20:33.901Z,101660.00
2022-10-13T00:23:06.795Z,101657.00
2022-10-13T00:25:46.989Z,101659.00
2022-10-13T00:28:22.265Z,101654.00
2022-10-13T00:30:55.552Z,101648.00
2022-10-13T00:33:28.588Z,101645.00
2022-10-13T00:36:01.765Z,101638.00
2022-10-13T00:38:34.819Z,101644.00
2022-10-13T00:41:07.993Z,101643.00
2022-10-13T00:44:06.194Z,101638.00
2022-10-13T00:46:46.215Z,101636.00
2022-10-13T00:49:19.199Z,101628.00
2022-10-13T00:51:53.666Z,101641.00
2022-10-13T00:54:28.145Z,101625.00
2022-10-13T00:57:01.230Z,101628.00
2022-10-13T00:59:34.782Z,101624.00
2022-10-13T01:02:07.958Z,101621.00
2022-10-13T01:04:42.608Z,101601.00
2022-10-13T01:07:20.096Z,101615.00
2022-10-13T01:10:05.193Z,101606.00
2022-10-13T01:12:50.268Z,101606.00
2022-10-13T01:15:28.755Z,101615.00
2022-10-13T01:18:15.463Z,101598.00
2022-10-13T01:20:56.988Z,101605.00
2022-10-13T01:23:34.765Z,101588.00
2022-10-13T01:26:40.862Z,101593.00
2022-10-13T01:29:35.473Z,101586.00
2022-10-13T01:32:21.878Z,101584.00
2022-10-13T01:35:06.119Z,101585.00
2022-10-13T01:37:43.872Z,101582.00
2022-10-13T01:40:34.505Z,101572.00
2022-10-13T01:43:24.242Z,101573.00
2022-10-13T01:45:59.228Z,101575.00
2022-10-13T01:48:40.552Z,101568.00
2022-10-13T01:51:15.990Z,101565.00
2022-10-13T01:53:50.864Z,101550.00
2022-10-13T01:56:23.742Z,101557.00
2022-10-13T01:58:58.830Z,101548.00
2022-10-13T02:01:50.780Z,101545.00
2022-10-13T02:04:28.597Z,101545.00
2022-10-13T02:07:29.960Z,101553.00
2022-10-13T02:10:21.293Z,101549.00
2022-10-13T02:13:06.969Z,101562.00
2022-10-13T02:15:42.224Z,101561.00
2022-10-13T02:18:16.741Z,101551.00
2022-10-13T02:20:50.641Z,101551.00
2022-10-13T02:23:23.428Z,101554.00
2022-10-13T02:25:57.013Z,101557.00
2022-10-13T02:28:30.421Z,101537.00
2022-10-13T02:31:03.168Z,101548.00
2022-10-13T02:33:37.808Z,101558.00
2022-10-13T02:36:10.607Z,101560.00
2022-10-13T02:38:43.722Z,101556.00
2022-10-13T02:41:16.591Z,101555.00
2022-10-13T02:43:49.615Z,101558.00
2022-10-13T02:46:22.565Z,101560.00
2022-10-13T02:48:55.542Z,101563.00
2022-10-13T02:51:36.209Z,101561.00
2022-10-13T02:54:06.376Z,101559.00
2022-10-13T02:56:39.334Z,101553.00
2022-10-13T02:59:12.467Z,101554.00
2022-10-13T03:01:46.407Z,101544.00
2022-10-13T03:04:19.315Z,101534.00
2022-10-13T03:06:52.527Z,101539.00
2022-10-13T03:09:25.491Z,101549.00
2022-10-13T03:11:58.575Z,101535.00
2022-10-13T03:14:31.516Z,101539.00
2022-10-13T03:17:04.604Z,101544.00
2022-10-13T03:19:37.538Z,101541.00
2022-10-13T03:22:13.275Z,101534.00
2022-10-13T03:24:46.179Z,101544.00
2022-10-13T03:27:19.420Z,101535.00
2022-10-13T03:29:56.568Z,101533.00
2022-10-13T03:32:29.405Z,101539.00
2022-10-13T03:35:02.340Z,101538.00
2022-10-13T03:37:35.357Z,101536.00
2022-10-13T03:40:08.946Z,101531.00
2022-10-13T03:42:44.584Z,101533.00
2022-10-13T03:45:17.419Z,101547.00
2022-10-13T03:47:50.453Z,101532.00
2022-10-13T03:50:23.669Z,101522.00
2022-10-13T03:52:56.887Z,101531.00
2022-10-13T03:55:29.592Z,101523.00
2022-10-13T03:58:02.601Z,101517.00
2022-10-13T04:00:35.862Z,101525.00
2022-10-13T04:03:08.885Z,101519.00
2022-10-13T04:05:41.820Z,101522.00
2022-10-13T04:08:15.159Z,101522.00
2022-10-13T04:10:48.164Z,101529.00
2022-10-13T04:13:23.476Z,101526.00
2022-10-13T04:15:55.292Z,101527.00
2022-10-13T04:18:28.091Z,101527.00
2022-10-13T04:21:00.981Z,101528.00
2022-10-13T04:23:34.109Z,101534.00
2022-10-13T04:26:07.783Z,101523.00
2022-10-13T04:28:40.948Z,101524.00
2022-10-13T04:31:13.860Z,101534.00
2022-10-13T04:33:47.067Z,101527.00
2022-10-13T04:36:20.920Z,101525.00
2022-10-13T04:38:53.732Z,101528.00
2022-10-13T04:41:28.225Z,101534.00
2022-10-13T04:44:02.373Z,101533.00
2022-10-13T04:46:35.490Z,101529.00
2022-10-13T04:49:08.425Z,101531.00
2022-10-13T04:51:41.241Z,101538.00
2022-10-13T04:54:14.491Z,101536.00
2022-10-13T04:56:48.854Z,101538.00
2022-10-13T04:59:21.794Z,101533.00
2022-10-13T05:01:54.740Z,101532.00
2022-10-13T05:04:27.631Z,101529.00
2022-10-13T05:07:16.931Z,101532.00
2022-10-13T05:09:34.825Z,101529.00
2022-10-13T05:12:07.842Z,101534.00
2022-10-13T05:14:40.983Z,101537.00
2022-10-13T05:17:14.580Z,101535.00
2022-10-13T05:19:47.528Z,101534.00
2022-10-13T05:22:20.907Z,101538.00
2022-10-13T05:24:53.991Z,101529.00
2022-10-13T05:27:27.398Z,101536.00
2022-10-13T05:30:00.332Z,101525.00
2022-10-13T05:32:32.899Z,101534.00
2022-10-13T05:35:05.890Z,101530.00
2022-10-13T05:37:39.177Z,101533.00
2022-10-13T05:40:15.811Z,101534.00
2022-10-13T05:42:48.786Z,101546.00
2022-10-13T05:45:26.493Z,101547.00
2022-10-13T05:47:59.513Z,101556.00
2022-10-13T05:50:33.233Z,101556.00
2022-10-13T05:53:06.510Z,101560.00
2022-10-13T05:55:40.230Z,101560.00
2022-10-13T05:58:14.431Z,101553.00
2022-10-13T06:00:48.734Z,101553.00
2022-10-13T06:03:23.982Z,101560.00
2022-10-13T06:05:56.935Z,101555.00
2022-10-13T06:08:29.870Z,101569.00
2022-10-13T06:11:05.330Z,101573.00
2022-10-13T06:13:38.459Z,101570.00
2022-10-13T06:16:11.694Z,101577.00
2022-10-13T06:18:44.381Z,101575.00
2022-10-13T06:21:21.963Z,101575.00
2022-10-13T06:23:58.620Z,101578.00
2022-10-13T06:26:34.479Z,101582.00
2022-10-13T06:29:06.550Z,101577.00
2022-10-13T06:31:40.478Z,101579.00
2022-10-13T06:34:14.306Z,101585.00
2022-10-13T06:36:47.168Z,101591.00
2022-10-13T06:39:23.054Z,101592.00
2022-10-13T06:41:57.171Z,101595.00
2022-10-13T06:44:30.340Z,101599.00
2022-10-13T06:47:08.594Z,101608.00
2022-10-13T06:49:39.214Z,101614.00
2022-10-13T06:52:12.790Z,101616.00
2022-10-13T06:54:45.764Z,101622.00
2022-10-13T06:57:18.977Z,101616.00
2022-10-13T06:59:52.242Z,101626.00
2022-10-13T07:02:25.154Z,101626.00
2022-10-13T07:04:58.837Z,101629.00
2022-10-13T07:07:31.753Z,101627.00
2022-10-13T07:10:04.677Z,101627.00
2022-10-13T07:12:37.783Z,101625.00
2022-10-13T07:15:11.510Z,101638.00
2022-10-13T07:17:46.865Z,101635.00
2022-10-13T07:20:19.778Z,101633.00
2022-10-13T07:22:54.267Z,101639.00
2022-10-13T07:25:27.146Z,101646.00
2022-10-13T07:28:01.461Z,101650.00
2022-10-13T07:30:34.498Z,101657.00
2022-10-13T07:33:07.363Z,101665.00
2022-10-13T07:35:44.111Z,101663.00
2022-10-13T07:38:17.345Z,101669.00
2022-10-13T07:40:50.314Z,101671.00
2022-10-13T07:43:23.345Z,101676.00
2022-10-13T07:45:56.320Z,101679.00
2022-10-13T07:48:33.755Z,101678.00
2022-10-13T07:51:08.768Z,101682.00
2022-10-13T07:53:41.881Z,101685.00
2022-10-13T07:56:16.205Z,101690.00
2022-10-13T07:58:50.857Z,101689.00
2022-10-13T08:01:23.818Z,101696.00
2022-10-13T08:03:58.659Z,101693.00
2022-10-13T08:06:31.781Z,101692.00
2022-10-13T08:09:05.408Z,101696.00
2022-10-13T08:11:38.341Z,101699.00
2022-10-13T08:14:11.554Z,101707.00
2022-10-13T08:16:48.587Z,101703.00
2022-10-13T08:19:20.900Z,101704.00
2022-10-13T08:21:58.818Z,101715.00
2022-10-13T08:24:27.985Z,101714.00
2022-10-13T08:27:01.514Z,101713.00
2022-10-13T08:29:34.439Z,101717.00
2022-10-13T08:32:07.233Z,101721.00
2022-10-13T08:34:40.157Z,101725.00
2022-10-13T08:37:17.201Z,101725.00
2022-10-13T08:39:50.923Z,101726.00
2022-10-13T08:42:25.293Z,101725.00
2022-10-13T08:47:55.948Z,101744.00
2022-10-13T08:50:31.057Z,101747.00
2022-10-13T08:53:11.678Z,101749.00
2022-10-13T08:55:49.394Z,101743.00
2022-10-13T08:58:30.720Z,101753.00
2022-10-13T09:01:15.178Z,101749.00
2022-10-13T09:03:53.259Z,101748.00
2022-10-13T09:06:31.352Z,101752.00
2022-10-13T09:09:06.688Z,101755.00
2022-10-13T09:11:41.418Z,101746.00
2022-10-13T09:14:16.231Z,101753.00
2022-10-13T09:16:49.654Z,101757.00
2022-10-13T09:19:39.679Z,101750.00
2022-10-13T09:22:36.107Z,101755.00
2022-10-13T09:25:14.710Z,101748.00
2022-10-13T09:28:02.274Z,101756.00
2022-10-13T09:30:43.238Z,101751.00
2022-10-13T09:33:21.339Z,101753.00
2022-10-13T09:36:09.097Z,101773.00
2022-10-13T09:38:42.513Z,101757.00
2022-10-13T09:41:20.282Z,101765.00
2022-10-13T09:43:55.463Z,101766.00
2022-10-13T09:46:44.264Z,101764.00
2022-10-13T09:49:36.937Z,101764.00
2022-10-13T09:52:18.324Z,101766.00
2022-10-13T09:54:53.410Z,101774.00
2022-10-13T09:57:50.170Z,101775.00
2022-10-13T10:00:28.095Z,101774.00
2022-10-13T10:03:21.409Z,101770.00
2022-10-13T10:05:56.879Z,101774.00
2022-10-13T10:09:02.769Z,101757.00
2022-10-13T10:11:29.986Z,101766.00
2022-10-13T10:14:05.071Z,101781.00
2022-10-13T10:16:39.658Z,101777.00
2022-10-13T10:19:26.353Z,101771.00
2022-10-13T10:22:17.761Z,101766.00
2022-10-13T10:25:05.668Z,101777.00
2022-10-13T10:27:43.876Z,101780.00
2022-10-13T10:30:28.337Z,101774.00
2022-10-13T10:33:26.720Z,101774.00
2022-10-13T10:36:20.930Z,101771.00
2022-10-13T10:38:55.812Z,101788.00
2022-10-13T10:41:36.125Z,101782.00
2022-10-13T10:44:16.850Z,101787.00
2022-10-13T10:46:51.759Z,101777.00
2022-10-13T10:49:29.463Z,101782.00
2022-10-13T10:52:03.317Z,101772.00
2022-10-13T10:54:50.418Z,101776.00
2022-10-13T10:57:40.927Z,101766.00
2022-10-13T11:00:22.835Z,101765.00
2022-10-13T11:03:06.299Z,101770.00
2022-10-13T11:06:06.654Z,101766.00
2022-10-13T11:08:50.568Z,101774.00
2022-10-13T11:11:30.191Z,101770.00
2022-10-13T11:14:10.840Z,101780.00
2022-10-13T11:17:03.842Z,101776.00
2022-10-13T11:19:38.671Z,101772.00
2022-10-13T11:22:14.282Z,101766.00
2022-10-13T11:24:58.543Z,101766.00
2022-10-13T11:27:42.219Z,101776.00
2022-10-13T11:30:53.403Z,101780.00
2022-10-13T11:33:47.780Z,101776.00
2022-10-13T11:36:43.532Z,101790.00
2022-10-13T11:39:32.925Z,101789.00
2022-10-13T11:42:22.552Z,101776.00
2022-10-13T11:45:04.421Z,101786.00
2022-10-13T11:47:48.794Z,101788.00
2022-10-13T11:50:45.944Z,101796.00
2022-10-13T11:53:24.021Z,101783.00
2022-10-13T11:56:02.966Z,101787.00
2022-10-13T11:58:37.487Z,101780.00
2022-10-13T12:01:18.072Z,101778.00
2022-10-13T12:03:51.606Z,101771.00
2022-10-13T12:06:38.840Z,101765.00
2022-10-13T12:09:22.542Z,101770.00
2022-10-13T12:12:03.834Z,101771.00
2022-10-13T12:14:46.210Z,101771.00
2022-10-13T12:17:37.813Z,101776.00
2022-10-13T12:20:25.103Z,101760.00
2022-10-13T12:23:01.437Z,101766.00
2022-10-13T12:25:35.342Z,101770.00
2022-10-13T12:28:08.164Z,101761.00
2022-10-13T12:30:41.216Z,101755.00
2022-10-13T12:33:33.718Z,101755.00
2022-10-13T12:36:22.982Z,101758.00
2022-10-13T12:38:57.999Z,101753.00
2022-10-13T12:41:33.548Z,101754.00
2022-10-13T12:44:11.602Z,101757.00
2022-10-13T12:46:55.370Z,101759.00
2022-10-13T12:49:36.371Z,101759.00
2022-10-13T12:52:15.488Z,101758.00
2022-10-13T12:54:58.594Z,101754.00
2022-10-13T12:57:42.293Z,101758.00
2022-10-13T13:00:29.737Z,101764.00
2022-10-13T13:03:08.171Z,101751.00
2022-10-13T13:05:52.343Z,101750.00
2022-10-13T13:08:33.695Z,101744.00
2022-10-13T13:11:08.948Z,101740.00
2022-10-13T13:13:41.846Z,101733.00
2022-10-13T13:16:25.551Z,101735.00
2022-10-13T13:18:58.617Z,101732.00
2022-10-13T13:21:31.777Z,101729.00
2022-10-13T13:24:16.265Z,101722.00
2022-10-13T13:26:38.977Z,101719.00
2022-10-13T13:29:13.220Z,101734.00
2022-10-13T13:31:46.242Z,101724.00
2022-10-13T13:34:21.140Z,101719.00
2022-10-13T13:36:54.380Z,101728.00
2022-10-13T13:39:27.268Z,101730.00
2022-10-13T13:42:00.476Z,101721.00
2022-10-13T13:44:37.508Z,101722.00
2022-10-13T13:47:11.864Z,101728.00
2022-10-13T13:49:44.561Z,101727.00
2022-10-13T13:52:17.960Z,101725.00
2022-10-13T13:54:51.489Z,101727.00
2022-10-13T13:57:24.388Z,101719.00
2022-10-13T14:00:00.029Z,101731.00
2022-10-13T14:02:33.690Z,101723.00
2022-10-13T14:05:07.025Z,101727.00
2022-10-13T14:07:40.323Z,101724.00
2022-10-13T14:10:14.247Z,101733.00
2022-10-13T14:12:47.371Z,101720.00
2022-10-13T14:15:28.845Z,101717.00
2022-10-13T14:17:59.033Z,101725.00
2022-10-13T14:20:32.048Z,101719.00
2022-10-13T14:23:05.011Z,101720.00
2022-10-13T14:25:38.227Z,101717.00
2022-10-13T14:28:18.263Z,101714.00
2022-10-13T14:30:49.874Z,101721.00
2022-10-13T14:33:22.690Z,101739.00
2022-10-13T14:36:03.470Z,101739.00
2022-10-13T14:38:37.148Z,101727.00
2022-10-13T14:41:10.742Z,101734.00
2022-10-13T14:43:44.004Z,101739.00
2022-10-13T14:46:17.773Z,101729.00
2022-10-13T14:48:50.556Z,101727.00
2022-10-13T14:51:23.219Z,101727.00
2022-10-13T14:53:55.952Z,101727.00
2022-10-13T14:56:31.512Z,101731.00
2022-10-13T14:59:06.301Z,101736.00
2022-10-13T15:01:40.170Z,101731.00
2022-10-13T15:04:13.488Z,101727.00
2022-10-13T15:06:46.614Z,101735.00
2022-10-13T15:09:21.077Z,101731.00
2022-10-13T15:11:53.949Z,101745.00
2022-10-13T15:14:26.983Z,101734.00
2022-10-13T15:16:59.890Z,101738.00
2022-10-13T15:19:33.091Z,101734.00
2022-10-13T15:22:06.058Z,101735.00
2022-10-13T15:24:39.075Z,101738.00
2022-10-13T15:27:12.003Z,101734.00
2022-10-13T15:29:45.041Z,101733.00
2022-10-13T15:32:22.810Z,101726.00
2022-10-13T15:34:56.172Z,101736.00
2022-10-13T15:37:29.122Z,101738.00
2022-10-13T15:40:01.961Z,101731.00
2022-10-13T15:42:34.954Z,101730.00
2022-10-13T15:45:10.778Z,101725.00
2022-10-13T15:47:42.460Z,101729.00
2022-10-13T15:50:15.797Z,101731.00
2022-10-13T15:52:48.835Z,101727.00
2022-10-13T15:55:21.999Z,101732.00
2022-10-13T15:57:55.216Z,101725.00
2022-10-13T16:00:28.092Z,101723.00
2022-10-13T16:03:01.326Z,101726.00
2022-10-13T16:05:34.537Z,101728.00
2022-10-13T16:08:07.903Z,101735.00
2022-10-13T16:10:45.058Z,101734.00
2022-10-13T16:13:18.786Z,101733.00
2022-10-13T16:16:05.161Z,101740.00
2022-10-13T16:18:39.884Z,101745.00
2022-10-13T16:21:21.002Z,101738.00
2022-10-13T16:23:53.907Z,101755.00
2022-10-13T16:26:29.398Z,101748.00
2022-10-13T16:29:06.611Z,101755.00
2022-10-13T16:31:39.514Z,101741.00
2022-10-13T16:34:12.414Z,101741.00
2022-10-13T16:36:45.453Z,101737.00
2022-10-13T16:39:18.382Z,101747.00
2022-10-13T16:41:51.369Z,101747.00
2022-10-13T16:44:24.596Z,101745.00
2022-10-13T16:46:58.516Z,101741.00
2022-10-13T16:49:31.517Z,101751.00
2022-10-13T16:52:04.503Z,101741.00
2022-10-13T16:54:37.213Z,101747.00
2022-10-13T16:57:09.990Z,101744.00
2022-10-13T16:59:42.951Z,101753.00
2022-10-13T17:02:19.331Z,101745.00
2022-10-13T17:04:52.245Z,101748.00
2022-10-13T17:07:25.694Z,101750.00
2022-10-13T17:09:58.286Z,101749.00
2022-10-13T17:12:31.096Z,101739.00
2022-10-13T17:15:04.045Z,101738.00
2022-10-13T17:17:36.955Z,101737.00
2022-10-13T17:20:10.533Z,101743.00
2022-10-13T17:22:43.902Z,101746.00
2022-10-13T17:25:16.863Z,101747.00
2022-10-13T17:27:49.883Z,101750.00
2022-10-13T17:30:22.885Z,101747.00
2022-10-13T17:33:04.283Z,101736.00
2022-10-13T17:35:34.858Z,101750.00
2022-10-13T17:38:07.741Z,101750.00
2022-10-13T17:40:41.235Z,101756.00
2022-10-13T17:43:14.319Z,101760.00
2022-10-13T17:45:47.211Z,101762.00
2022-10-13T17:48:23.085Z,101759.00
2022-10-13T17:50:54.414Z,101764.00
2022-10-13T17:53:27.403Z,101763.00
2022-10-13T17:56:04.459Z,101758.00
2022-10-13T17:58:38.809Z,101770.00
2022-10-13T18:01:13.726Z,101769.00
2022-10-13T18:03:55.183Z,101766.00
2022-10-13T18:06:29.225Z,101768.00
2022-10-13T18:09:02.496Z,101778.00
2022-10-13T18:11:35.869Z,101785.00
2022-10-13T18:14:09.176Z,101785.00
2022-10-13T18:16:42.617Z,101795.00
2022-10-13T18:19:15.781Z,101786.00
2022-10-13T18:21:48.852Z,101793.00
2022-10-13T18:24:21.859Z,101792.00
2022-10-13T18:26:54.918Z,101792.00
2022-10-13T18:29:27.749Z,101796.00
2022-10-13T18:32:01.071Z,101798.00
2022-10-13T18:34:34.057Z,101794.00
2022-10-13T18:37:07.383Z,101809.00
2022-10-13T18:39:40.623Z,101809.00
2022-10-13T18:42:13.579Z,101798.00
2022-10-13T18:44:46.660Z,101801.00
2022-10-13T18:47:22.479Z,101800.00
2022-10-13T18:49:55.561Z,101799.00
2022-10-13T18:52:28.505Z,101792.00
2022-10-13T18:55:01.507Z,101792.00
2022-10-13T18:57:34.493Z,101794.00
2022-10-13T19:00:08.646Z,101801.00
2022-10-13T19:02:41.520Z,101803.00
2022-10-13T19:05:14.785Z,101804.00
2022-10-13T19:07:47.993Z,101803.00
2022-10-13T19:10:25.518Z,101804.00
2022-10-13T19:12:58.529Z,101815.00
2022-10-13T19:15:31.428Z,101823.00
2022-10-13T19:18:08.493Z,101823.00
2022-10-13T19:20:41.418Z,101824.00
2022-10-13T19:23:16.286Z,101825.00
2022-10-13T19:25:49.371Z,101828.00
2022-10-13T19:28:22.460Z,101836.00
2022-10-13T19:30:56.491Z,101835.00
2022-10-13T19:33:29.417Z,101838.00
2022-10-13T19:36:02.463Z,101837.00
2022-10-13T19:38:35.398Z,101828.00
2022-10-13T19:41:10.078Z,101834.00
2022-10-13T19:43:42.918Z,101829.00
2022-10-13T19:46:15.748Z,101845.00
2022-10-13T19:48:48.668Z,101849.00
2022-10-13T19:51:21.881Z,101846.00
2022-10-13T19:53:54.809Z,101846.00
2022-10-13T19:56:29.794Z,101849.00
2022-10-13T19:59:02.653Z,101845.00
2022-10-13T20:01:36.920Z,101843.00
2022-10-13T20:04:09.965Z,101849.00
2022-10-13T20:06:43.533Z,101850.00
2022-10-13T20:09:16.654Z,101856.00
2022-10-13T20:11:50.797Z,101849.00
2022-10-13T20:14:24.181Z,101852.00
2022-10-13T20:16:58.137Z,101851.00
2022-10-13T20:19:31.011Z,101865.00
2022-10-13T20:22:03.927Z,101856.00
2022-10-13T20:24:55.477Z,101857.00
2022-10-13T20:27:28.762Z,101863.00
2022-10-13T20:30:01.760Z,101861.00
2022-10-13T20:32:34.577Z,101862.00
2022-10-13T20:35:07.585Z,101858.00
2022-10-13T20:37:40.588Z,101862.00
2022-10-13T20:40:14.083Z,101864.00
2022-10-13T20:42:47.036Z,101863.00
2022-10-13T20:45:20.185Z,101869.00
2022-10-13T20:47:53.176Z,101861.00
2022-10-13T20:50:26.000Z,101870.00
2022-10-13T20:52:58.930Z,101873.00
2022-10-13T20:55:32.674Z,101869.00
2022-10-13T20:58:05.603Z,101874.00
2022-10-13T21:00:38.533Z,101879.00
2022-10-13T21:03:11.190Z,101874.00
2022-10-13T21:05:43.983Z,101885.00
2022-10-13T21:08:16.816Z,101880.00
2022-10-13T21:10:50.103Z,101878.00
2022-10-13T21:13:24.357Z,101871.00
2022-10-13T21:15:57.200Z,101875.00
2022-10-13T21:18:30.130Z,101872.00
2022-10-13T21:21:07.987Z,101882.00
2022-10-13T21:23:41.632Z,101882.00
2022-10-13T21:26:20.411Z,101880.00
2022-10-13T21:28:49.126Z,101875.00
2022-10-13T21:31:23.250Z,101875.00
2022-10-13T21:33:56.307Z,101877.00
2022-10-13T21:36:32.405Z,101871.00
2022-10-13T21:39:07.833Z,101876.00
2022-10-13T21:41:40.909Z,101872.00
2022-10-13T21:44:15.801Z,101863.00
2022-10-13T21:46:48.715Z,101865.00
2022-10-13T21:49:21.711Z,101861.00
2022-10-13T21:51:54.821Z,101869.00
2022-10-13T21:54:27.817Z,101859.00
2022-10-13T21:57:00.809Z,101864.00
2022-10-13T21:59:34.026Z,101857.00
2022-10-13T22:02:07.058Z,101870.00
2022-10-13T22:04:39.991Z,101864.00
2022-10-13T22:07:13.029Z,101870.00
2022-10-13T22:09:45.841Z,101860.00
2022-10-13T22:12:18.882Z,101870.00
2022-10-13T22:14:52.024Z,101865.00
2022-10-13T22:17:24.877Z,101874.00
2022-10-13T22:19:58.010Z,101870.00
2022-10-13T22:22:31.141Z,101864.00
2022-10-13T22:25:04.272Z,101870.00
2022-10-13T22:27:37.277Z,101870.00
2022-10-13T22:30:10.982Z,101858.00
2022-10-13T22:32:43.869Z,101861.00
2022-10-13T22:35:16.775Z,101860.00
2022-10-13T22:37:49.794Z,101863.00
2022-10-13T22:40:22.496Z,101870.00
2022-10-13T22:42:55.402Z,101856.00
2022-10-13T22:45:32.534Z,101875.00
2022-10-13T22:48:07.739Z,101870.00
2022-10-13T22:50:40.644Z,101870.00
2022-10-13T22:53:13.715Z,101859.00
2022-10-13T22:55:46.846Z,101861.00
2022-10-13T22:58:19.793Z,101865.00
2022-10-13T23:00:52.933Z,101859.00
2022-10-13T23:03:25.722Z,101873.00
2022-10-13T23:05:58.658Z,101859.00
2022-10-13T23:08:31.638Z,101858.00
2022-10-13T23:11:04.495Z,101870.00
2022-10-13T23:13:37.474Z,101873.00
2022-10-13T23:16:15.314Z,101865.00
2022-10-13T23:18:48.494Z,101863.00
2022-10-13T23:21:22.502Z,101851.00
2022-10-13T23:23:59.949Z,101857.00
2022-10-13T23:26:33.338Z,101843.00
2022-10-13T23:29:06.752Z,101851.00
2022-10-13T23:31:40.141Z,101849.00
2022-10-13T23:34:13.369Z,101845.00
2022-10-13T23:36:46.556Z,101841.00
2022-10-13T23:39:19.460Z,101842.00
2022-10-13T23:41:52.419Z,101840.00
2022-10-13T23:44:25.429Z,101847.00
2022-10-13T23:46:58.381Z,101839.00
2022-10-13T23:49:31.508Z,101843.00
2022-10-13T23:52:08.530Z,101846.00
2022-10-13T23:54:38.249Z,101839.00
2022-10-13T23:57:11.147Z,101845.00
2022-10-13T23:59:43.838Z,101838.00
